Кавказ

Регион ЕС ОрВД Кавказ

Регион Единой Системы Организации Воздушного Движения (регион ЕС ОрВД) Кавказ является структурным подразделением VATRUS.

В зону ответственности центра в сети VATSIM входит воздушное пространство над территориями Ростовской, Волгоградской, Астраханской областями; республиками Калмыкия, Дагестан, Чечня, Ингушетия, Северная Осетия - Алания, Карачаево-Черкесская, Адыгея, Крым; Краснодарским и Ставропольским краями, а так же Грузией, Азербайджаном и Арменией.

Контакты для связи: 

Caucasus ACC Chief – Бадалов Григорий (1115140) – chief@urrv.me
Caucasus ACC Instructor - Полостяной Валерий (1111228) - ins02@urrv.me

Секторизация РЦ Региона Кавказ

Лого Кавказ
Руководство

Grigori Badalov

Куратор
Контакты

FSS региона
Обозначение
RU-SC_CTR
Позывной
Кавказ-Радар
Частота
136.000
Примечание
Top-down
Инструкторы региона
Denis Zhuchkov * (Controller)
Grigori Badalov (Instructor)
Valeriy Polostyanoy (Instructor)
Включает в себя

РПИ Баку
РПИ Ереван
РПИ Ростов-на-Дону
РПИ Тбилиси*

Диспетчеры региона

Диспетчер Рейтинг Допуски *
Ashot Hakobyan Controller UDDD_CTR
Chen Cheng Instructor UBBA_CTR
Dallon Pereira Supervisor UBBA_CTR , UGGG_CTR
Deniz Isiklar Controller UBBA_CTR
Ismail Hassan Senior Student UBBA_CTR
Muhammad Abdullah Controller UBBA_CTR , UGGG_CTR
Muhammad Nabil Controller UGGG_CTR
Piotr Masek Unknown URRV_CTR
Artem Smychkov Instructor URRV_CTR
Daniel Ryabkov Controller URRV_CTR  *
Denis Makosov Unknown URRV_CTR
Denis Zhuchkov Controller URRV_CTR
George Kalandadze Controller UGGG_CTR
Grigori Badalov Instructor UBBA_CTR , UDDD_CTR , UGGG_CTR , URRV_CTR
Ivan Chernov Senior Controller UBBA_CTR , UDDD_CTR , UGGG_CTR , URRV_CTR
Kirill Ivanov Controller URRV_CTR
Mark Stolyar Controller URRV_CTR
Valeriy Polostyanoy Instructor UBBA_CTR , UDDD_CTR , UGGG_CTR , URRV_CTR
Davit Karapetyan Student 2 UDYZ_TWR 
Veda Moola Senior Student UBBB_DEP , UBBB_APP 
Alexey Kshnyakin Unknown URSS_GND
Alexey Perov Student URSS_TWR!!!*, URSS_GND
Alikhan Aidarbek Student UBBB_TWR , URSS_GND
Andrey Kharitonov Student URSS_GND*
Andrey Pelykh Student 2 URSS_TWR!!!*
Andrey Zonov Student 2 UBBB_GND, URSS_TWR!!!
Anton Nikolaev Student 2 URSS_APP*
Artem Tsendrovsky Senior Student UBBB_DEP, UBBB_APP, URWW_APP, URSS_APP
Dmitry Sazonov Senior Student URSS_APP
Egor Panov Student URSS_GND
Emanuel Teymoorian Student 2 UBBB_DEP*, UBBB_APP*
Fedor Banshchikov Student URSS_GND, URRR_GND!!!
Ilya Potapov Student URRP_GND, URSS_GND*
Ivan Klochkov Unknown URSS_TWR
Joshua Ong Student 2 UBBB_TWR
Joury Roussine Unknown URRR_GND!!!
Maxim Baglikov Student 2 URSS_TWR!!!, URSS_R_APP*
Mikhail Kozlineev Student URSS_GND*
Mikhail Petrov Student URSS_TWR!!!*
Nika Avdalov Student 2 UGKO_TWR, UGSB_TWR, UGTB_TWR
Oleg Kabachenko Student 2 URSS_GND
Semen Vaysman Student URSS_GND
Sergey Milyaev Student URSS_GND
Sergey Scherbakov Unknown URSS_GND, URRR_GND!!!
Sergey Vologzhin Student 2 URSS_GND
Suwan Kim Student 2 UBBB_DEP*, UBBB_APP*, UGTB_TWR
Timofey Abramchuck Student URSS_GND
YAKOV PONOMARENKO Student 2 URSS_TWR!!!*

Аэропорты региона

ICAO Город Название Погода
UBBB Баку Баку UBBB 100830Z 09016KT 9999 -RA SCT013 OVC024 09/08 Q1026 NOSIG
UDYZ Ереван Звартноц UDYZ 100830Z 13002KT 3500 BR SCT036 05/01 Q1025 NOSIG
URFF Симферополь Симферополь
URSS Сочи Сочи URSS 100830Z 14004MPS 9999 BKN080 15/09 Q1020 R06/010070 R02/////// NOSIG RMK R02/15003MPS QFE764
UGTB Тбилиси Тбилиси UGTB 100830Z VRB01KT 9999 OVC018 03/M01 Q1027 NOSIG
URRY
URKA Анапа Анапа URKA 100830Z 19007MPS 130V200 9999 FEW043 16/10 Q1017 R22/290160 NOSIG RMK QFE758/1011
URWA Астрахань Астрахань URWA 100830Z 13008MPS CAVOK M02/M08 Q1032 R09/010070 NOSIG RMK QFE776/1035
UGSB Батуми Батуми UGSB 100830Z 12014KT CAVOK 16/05 Q1020 NOSIG
URMO Владикавказ Беслан URMO 100830Z VRB01MPS 0800 0300E R09/0300D FZFG OVC002 M02/M03 Q1022 R09/190060 NOSIG RMK QBB060 MT OBSC QFE723/0964
URWW Волгоград Волгоград URWW 100830Z 14008MPS 9999 BKN026 M04/M07 Q1027 R06/010070 TEMPO 1000 -FZDZ BR OVC003
UBBQ Габала Габала UBBQ 100800Z 00000KT 9999 BKN021 05/01 Q1026 NOSIG RMK MT OBSC
URKG Геленджик Геленджик
URMG Грозный Грозный URMG 100830Z VRB01MPS 7000 OVC004 00/M01 Q1024 R26/190060 NOSIG RMK MT OBSC OBST OBSC QFE753/1004
UDSG Гюмри Ширак UDSG 100830Z 00000KT 9999 OVC023 01/M04 Q1025 NOSIG
UBBG Гянджа Гянджа UBBG 100830Z VRB02KT 9999 OVC020 05/M01 Q1026 NOSIG
UDYE Ереван Эребуни
URKK Краснодар Пашковский URKK 100830Z 12004MPS CAVOK 13/05 Q1019 R05R/290060 NOSIG RMK QFE761
UGKO Кутаиси Кутаиси UGKO 100830Z 08014KT CAVOK 11/02 Q1021 NOSIG
URML Махачкала Уйташ URML 100830Z 15007MPS 9999 SCT026 08/05 Q1026 R14/01//70 NOSIG RMK QFE769/1026
URMM Минеральные Воды Минеральные Воды URMM 100830Z 12003MPS 7000 OVC003 M02/M02 Q1023 R12/190160 NOSIG RMK MT OBSC OBST OBSC QFE739/0986
URMS Назрань Магас
URMN Нальчик Нальчик URMN 100830Z 00000MPS 0300 FZFG VV001 M03/M03 Q1022 R24/390140 NOSIG RMK QBB030 MT OBSC OBST OBSC QFE730
UBBN Нахичевань Нахичевань UBBN 100830Z 14004KT 8000 OVC026 05/M00 Q1025 NOSIG RMK MT OBSC QFE693
URRP Ростов-на-Дону Платов URRP 100830Z 12008MPS 9000 -RA BKN043 03/02 Q1020 R05/290053 NOSIG RMK QFE760/1014
URRR Ростов-на-Дону Ростов-на-Дону
URMT Ставрополь Ставрополь URMT 100830Z 11003MPS CAVOK 02/M00 Q1021 R07/010070 NOSIG RMK QFE726
URWI Элиста Элиста URWI 100830Z 14009MPS 9999 BKN006 M00/M03 Q1026 R09/010065 NOSIG
UGAM Амбролаури Амбролаури UGAM 100830Z 00000KT CAVOK 05/M01 Q1022
UBBL Ленкорань Ленкорань UBBL 100800Z 33006KT 9000 BKN031 08/03 Q1028 NOSIG RMK MT OP
UGMS Местия Местия UGMS 100830Z AUTO 22001KT //// ////// 03/M06 Q1024
UGSA Натахтари Натахтари
UGGT Телави Телави